sensor_id;sensor_type;location;lat;lon;timestamp;temperature;humidity
23544;DHT22;11950;51.230;4.012;2022-08-19T00:00:25;19.20;99.90
23544;DHT22;11950;51.230;4.012;2022-08-19T00:02:51;19.20;99.90
23544;DHT22;11950;51.230;4.012;2022-08-19T00:05:19;19.20;99.90
23544;DHT22;11950;51.230;4.012;2022-08-19T00:07:45;19.10;99.90
23544;DHT22;11950;51.230;4.012;2022-08-19T00:10:14;19.10;99.90
23544;DHT22;11950;51.230;4.012;2022-08-19T00:12:41;19.00;99.90
23544;DHT22;11950;51.230;4.012;2022-08-19T00:15:10;18.90;99.90
23544;DHT22;11950;51.230;4.012;2022-08-19T00:17:39;19.00;99.90
23544;DHT22;11950;51.230;4.012;2022-08-19T00:20:06;18.80;99.90
23544;DHT22;11950;51.230;4.012;2022-08-19T00:22:33;19.00;99.90
23544;DHT22;11950;51.230;4.012;2022-08-19T00:24:59;18.90;99.90
23544;DHT22;11950;51.230;4.012;2022-08-19T00:27:25;18.80;99.90
23544;DHT22;11950;51.230;4.012;2022-08-19T00:29:51;18.80;99.90
23544;DHT22;11950;51.230;4.012;2022-08-19T00:32:18;19.00;99.90
23544;DHT22;11950;51.230;4.012;2022-08-19T00:34:44;18.90;99.90
23544;DHT22;11950;51.230;4.012;2022-08-19T00:37:10;18.70;99.90
23544;DHT22;11950;51.230;4.012;2022-08-19T00:39:37;18.70;99.90
23544;DHT22;11950;51.230;4.012;2022-08-19T00:42:03;18.70;99.90
23544;DHT22;11950;51.230;4.012;2022-08-19T00:44:32;18.70;99.90
23544;DHT22;11950;51.230;4.012;2022-08-19T00:46:59;18.60;99.90
23544;DHT22;11950;51.230;4.012;2022-08-19T00:52:23;18.60;99.90
23544;DHT22;11950;51.230;4.012;2022-08-19T00:54:51;18.70;99.90
23544;DHT22;11950;51.230;4.012;2022-08-19T00:57:20;18.70;99.90
23544;DHT22;11950;51.230;4.012;2022-08-19T00:59:51;18.70;99.90
23544;DHT22;11950;51.230;4.012;2022-08-19T01:02:19;18.60;99.90
23544;DHT22;11950;51.230;4.012;2022-08-19T01:04:45;18.70;99.90
23544;DHT22;11950;51.230;4.012;2022-08-19T01:07:12;18.60;99.90
23544;DHT22;11950;51.230;4.012;2022-08-19T01:09:38;18.50;99.90
23544;DHT22;11950;51.230;4.012;2022-08-19T01:12:05;18.50;99.90
23544;DHT22;11950;51.230;4.012;2022-08-19T01:14:31;18.50;99.90
23544;DHT22;11950;51.230;4.012;2022-08-19T01:16:58;18.50;99.90
23544;DHT22;11950;51.230;4.012;2022-08-19T01:19:39;18.60;99.90
23544;DHT22;11950;51.230;4.012;2022-08-19T01:22:11;18.40;99.90
23544;DHT22;11950;51.230;4.012;2022-08-19T01:24:39;18.50;99.90
23544;DHT22;11950;51.230;4.012;2022-08-19T01:27:06;18.40;99.90
23544;DHT22;11950;51.230;4.012;2022-08-19T01:29:33;18.30;99.90
23544;DHT22;11950;51.230;4.012;2022-08-19T01:32:01;18.30;99.90
23544;DHT22;11950;51.230;4.012;2022-08-19T01:34:27;18.40;99.90
23544;DHT22;11950;51.230;4.012;2022-08-19T01:36:53;18.30;99.90
23544;DHT22;11950;51.230;4.012;2022-08-19T01:39:22;18.30;99.90
23544;DHT22;11950;51.230;4.012;2022-08-19T01:41:49;18.20;99.90
23544;DHT22;11950;51.230;4.012;2022-08-19T01:44:16;18.10;99.90
23544;DHT22;11950;51.230;4.012;2022-08-19T01:46:43;18.10;99.90
23544;DHT22;11950;51.230;4.012;2022-08-19T01:49:10;18.30;99.90
23544;DHT22;11950;51.230;4.012;2022-08-19T01:51:37;18.20;99.90
23544;DHT22;11950;51.230;4.012;2022-08-19T01:54:04;18.20;99.90
23544;DHT22;11950;51.230;4.012;2022-08-19T01:56:30;18.30;99.90
23544;DHT22;11950;51.230;4.012;2022-08-19T01:59:03;18.20;99.90
23544;DHT22;11950;51.230;4.012;2022-08-19T02:01:30;18.20;99.90
23544;DHT22;11950;51.230;4.012;2022-08-19T02:03:59;18.20;99.90
23544;DHT22;11950;51.230;4.012;2022-08-19T02:06:27;18.20;99.90
23544;DHT22;11950;51.230;4.012;2022-08-19T02:08:54;18.20;99.90
23544;DHT22;11950;51.230;4.012;2022-08-19T02:11:23;18.20;99.90
23544;DHT22;11950;51.230;4.012;2022-08-19T02:13:53;16.10;99.90
23544;DHT22;11950;51.230;4.012;2022-08-19T02:16:20;18.20;99.90
23544;DHT22;11950;51.230;4.012;2022-08-19T02:18:47;18.10;99.90
23544;DHT22;11950;51.230;4.012;2022-08-19T02:21:18;18.20;99.90
23544;DHT22;11950;51.230;4.012;2022-08-19T02:23:44;18.00;99.90
23544;DHT22;11950;51.230;4.012;2022-08-19T02:26:12;18.00;99.90
23544;DHT22;11950;51.230;4.012;2022-08-19T02:28:39;18.00;99.90
23544;DHT22;11950;51.230;4.012;2022-08-19T02:31:14;17.90;99.90
23544;DHT22;11950;51.230;4.012;2022-08-19T02:33:41;18.00;99.90
23544;DHT22;11950;51.230;4.012;2022-08-19T02:36:09;18.00;99.90
23544;DHT22;11950;51.230;4.012;2022-08-19T02:38:36;17.90;99.90
23544;DHT22;11950;51.230;4.012;2022-08-19T02:41:10;18.00;99.90
23544;DHT22;11950;51.230;4.012;2022-08-19T02:43:37;18.00;99.90
23544;DHT22;11950;51.230;4.012;2022-08-19T02:46:23;18.10;99.90
23544;DHT22;11950;51.230;4.012;2022-08-19T02:49:02;17.90;99.90
23544;DHT22;11950;51.230;4.012;2022-08-19T02:51:32;17.80;99.90
23544;DHT22;11950;51.230;4.012;2022-08-19T02:53:59;17.80;99.90
23544;DHT22;11950;51.230;4.012;2022-08-19T02:56:26;17.90;99.90
23544;DHT22;11950;51.230;4.012;2022-08-19T02:58:54;17.90;99.90
23544;DHT22;11950;51.230;4.012;2022-08-19T03:01:23;17.80;99.90
23544;DHT22;11950;51.230;4.012;2022-08-19T03:03:51;17.80;99.90
23544;DHT22;11950;51.230;4.012;2022-08-19T03:06:18;17.70;99.90
23544;DHT22;11950;51.230;4.012;2022-08-19T03:08:46;17.70;99.90
23544;DHT22;11950;51.230;4.012;2022-08-19T03:11:17;17.80;99.90
23544;DHT22;11950;51.230;4.012;2022-08-19T03:13:44;17.60;99.90
23544;DHT22;11950;51.230;4.012;2022-08-19T03:16:12;17.70;99.90
23544;DHT22;11950;51.230;4.012;2022-08-19T03:18:38;17.80;99.90
23544;DHT22;11950;51.230;4.012;2022-08-19T03:21:05;17.80;99.90
23544;DHT22;11950;51.230;4.012;2022-08-19T03:23:32;17.60;99.90
23544;DHT22;11950;51.230;4.012;2022-08-19T03:25:58;17.60;99.90
23544;DHT22;11950;51.230;4.012;2022-08-19T03:28:24;17.60;99.90
23544;DHT22;11950;51.230;4.012;2022-08-19T03:31:02;17.70;99.90
23544;DHT22;11950;51.230;4.012;2022-08-19T03:33:30;17.80;99.90
23544;DHT22;11950;51.230;4.012;2022-08-19T03:38:32;17.70;99.90
23544;DHT22;11950;51.230;4.012;2022-08-19T03:41:03;17.70;99.90
23544;DHT22;11950;51.230;4.012;2022-08-19T03:43:34;17.80;99.90
23544;DHT22;11950;51.230;4.012;2022-08-19T03:46:09;17.70;99.90
23544;DHT22;11950;51.230;4.012;2022-08-19T03:48:36;17.80;99.90
23544;DHT22;11950;51.230;4.012;2022-08-19T03:51:02;17.70;99.90
23544;DHT22;11950;51.230;4.012;2022-08-19T03:53:30;17.60;99.90
23544;DHT22;11950;51.230;4.012;2022-08-19T03:55:57;17.70;99.90
23544;DHT22;11950;51.230;4.012;2022-08-19T03:58:27;17.80;99.90
23544;DHT22;11950;51.230;4.012;2022-08-19T04:00:57;17.80;99.90
23544;DHT22;11950;51.230;4.012;2022-08-19T04:03:25;17.70;99.90
23544;DHT22;11950;51.230;4.012;2022-08-19T04:05:53;17.60;99.90
23544;DHT22;11950;51.230;4.012;2022-08-19T04:08:19;17.70;99.90
23544;DHT22;11950;51.230;4.012;2022-08-19T04:10:48;17.50;99.90
23544;DHT22;11950;51.230;4.012;2022-08-19T04:13:16;17.60;99.90
23544;DHT22;11950;51.230;4.012;2022-08-19T04:15:45;17.60;99.90
23544;DHT22;11950;51.230;4.012;2022-08-19T04:18:13;17.50;99.90
23544;DHT22;11950;51.230;4.012;2022-08-19T04:20:48;17.60;99.90
23544;DHT22;11950;51.230;4.012;2022-08-19T04:23:15;17.50;99.90
23544;DHT22;11950;51.230;4.012;2022-08-19T04:25:43;17.50;99.90
23544;DHT22;11950;51.230;4.012;2022-08-19T04:28:11;17.50;99.90
23544;DHT22;11950;51.230;4.012;2022-08-19T04:30:52;17.50;99.90
23544;DHT22;11950;51.230;4.012;2022-08-19T04:33:22;17.40;99.90
23544;DHT22;11950;51.230;4.012;2022-08-19T04:35:50;17.50;99.90
23544;DHT22;11950;51.230;4.012;2022-08-19T04:38:19;17.40;99.90
23544;DHT22;11950;51.230;4.012;2022-08-19T04:40:48;17.40;99.90
23544;DHT22;11950;51.230;4.012;2022-08-19T04:43:34;17.40;99.90
23544;DHT22;11950;51.230;4.012;2022-08-19T04:46:11;17.30;99.90
23544;DHT22;11950;51.230;4.012;2022-08-19T04:48:39;17.30;99.90
23544;DHT22;11950;51.230;4.012;2022-08-19T04:51:07;17.40;99.90
23544;DHT22;11950;51.230;4.012;2022-08-19T04:53:36;17.30;99.90
23544;DHT22;11950;51.230;4.012;2022-08-19T04:56:13;17.30;99.90
23544;DHT22;11950;51.230;4.012;2022-08-19T04:58:42;17.30;99.90
23544;DHT22;11950;51.230;4.012;2022-08-19T05:01:14;17.40;99.90
23544;DHT22;11950;51.230;4.012;2022-08-19T05:03:43;17.20;99.90
23544;DHT22;11950;51.230;4.012;2022-08-19T05:06:11;17.30;99.90
23544;DHT22;11950;51.230;4.012;2022-08-19T05:08:40;17.30;99.90
23544;DHT22;11950;51.230;4.012;2022-08-19T05:11:24;17.20;99.90
23544;DHT22;11950;51.230;4.012;2022-08-19T05:13:51;17.20;99.90
23544;DHT22;11950;51.230;4.012;2022-08-19T05:16:20;17.10;99.90
23544;DHT22;11950;51.230;4.012;2022-08-19T05:18:47;17.30;99.90
23544;DHT22;11950;51.230;4.012;2022-08-19T05:21:33;17.10;99.90
23544;DHT22;11950;51.230;4.012;2022-08-19T05:24:20;17.40;99.90
23544;DHT22;11950;51.230;4.012;2022-08-19T05:26:48;17.30;99.90
23544;DHT22;11950;51.230;4.012;2022-08-19T05:29:17;17.20;99.90
23544;DHT22;11950;51.230;4.012;2022-08-19T05:31:44;17.30;99.90
23544;DHT22;11950;51.230;4.012;2022-08-19T05:34:11;17.50;99.90
23544;DHT22;11950;51.230;4.012;2022-08-19T05:36:40;17.50;99.90
23544;DHT22;11950;51.230;4.012;2022-08-19T05:39:09;17.50;99.90
23544;DHT22;11950;51.230;4.012;2022-08-19T05:41:36;17.50;99.90
23544;DHT22;11950;51.230;4.012;2022-08-19T05:44:06;17.50;99.90
23544;DHT22;11950;51.230;4.012;2022-08-19T05:46:36;17.60;99.90
23544;DHT22;11950;51.230;4.012;2022-08-19T05:49:05;17.80;99.90
23544;DHT22;11950;51.230;4.012;2022-08-19T05:51:33;17.70;99.90
23544;DHT22;11950;51.230;4.012;2022-08-19T05:54:04;17.70;99.90
23544;DHT22;11950;51.230;4.012;2022-08-19T05:56:31;17.90;99.90
23544;DHT22;11950;51.230;4.012;2022-08-19T05:58:58;18.00;99.90
23544;DHT22;11950;51.230;4.012;2022-08-19T06:01:25;18.00;99.90
23544;DHT22;11950;51.230;4.012;2022-08-19T06:03:52;18.20;99.90
23544;DHT22;11950;51.230;4.012;2022-08-19T06:06:20;18.20;99.90
23544;DHT22;11950;51.230;4.012;2022-08-19T06:08:46;18.30;99.90
23544;DHT22;11950;51.230;4.012;2022-08-19T06:11:28;18.30;99.90
23544;DHT22;11950;51.230;4.012;2022-08-19T06:14:10;18.40;99.90
23544;DHT22;11950;51.230;4.012;2022-08-19T06:16:39;18.50;99.90
23544;DHT22;11950;51.230;4.012;2022-08-19T06:19:08;18.50;99.90
23544;DHT22;11950;51.230;4.012;2022-08-19T06:21:37;18.60;99.90
23544;DHT22;11950;51.230;4.012;2022-08-19T06:24:05;18.70;99.90
23544;DHT22;11950;51.230;4.012;2022-08-19T06:26:34;18.70;99.90
23544;DHT22;11950;51.230;4.012;2022-08-19T06:29:01;18.80;99.90
23544;DHT22;11950;51.230;4.012;2022-08-19T06:31:28;18.90;99.90
23544;DHT22;11950;51.230;4.012;2022-08-19T06:33:55;19.00;99.90
23544;DHT22;11950;51.230;4.012;2022-08-19T06:36:28;19.20;99.90
23544;DHT22;11950;51.230;4.012;2022-08-19T06:38:56;19.00;99.90
23544;DHT22;11950;51.230;4.012;2022-08-19T06:41:25;19.10;99.90
23544;DHT22;11950;51.230;4.012;2022-08-19T06:43:52;19.30;99.90
23544;DHT22;11950;51.230;4.012;2022-08-19T06:46:19;19.30;99.90
23544;DHT22;11950;51.230;4.012;2022-08-19T06:48:46;19.30;99.90
23544;DHT22;11950;51.230;4.012;2022-08-19T06:51:17;19.60;99.90
23544;DHT22;11950;51.230;4.012;2022-08-19T06:53:49;19.50;99.90
23544;DHT22;11950;51.230;4.012;2022-08-19T06:56:18;19.60;99.90
23544;DHT22;11950;51.230;4.012;2022-08-19T06:58:45;19.60;99.90
23544;DHT22;11950;51.230;4.012;2022-08-19T07:01:13;19.50;99.90
23544;DHT22;11950;51.230;4.012;2022-08-19T07:03:39;19.60;99.90
23544;DHT22;11950;51.230;4.012;2022-08-19T07:06:11;19.90;99.90
23544;DHT22;11950;51.230;4.012;2022-08-19T07:08:38;20.00;99.90
23544;DHT22;11950;51.230;4.012;2022-08-19T07:11:11;20.00;99.90
23544;DHT22;11950;51.230;4.012;2022-08-19T07:13:39;20.00;99.90
23544;DHT22;11950;51.230;4.012;2022-08-19T07:16:07;19.90;99.90
23544;DHT22;11950;51.230;4.012;2022-08-19T07:18:34;19.90;99.90
23544;DHT22;11950;51.230;4.012;2022-08-19T07:21:09;19.90;99.90
23544;DHT22;11950;51.230;4.012;2022-08-19T07:23:36;20.20;99.90
23544;DHT22;11950;51.230;4.012;2022-08-19T07:26:25;20.20;99.90
23544;DHT22;11950;51.230;4.012;2022-08-19T07:28:51;20.10;99.90
23544;DHT22;11950;51.230;4.012;2022-08-19T07:31:20;20.10;99.90
23544;DHT22;11950;51.230;4.012;2022-08-19T07:33:48;20.20;99.90
23544;DHT22;11950;51.230;4.012;2022-08-19T07:36:18;20.30;99.90
23544;DHT22;11950;51.230;4.012;2022-08-19T07:38:46;20.20;99.90
23544;DHT22;11950;51.230;4.012;2022-08-19T07:41:20;20.40;99.90
23544;DHT22;11950;51.230;4.012;2022-08-19T07:43:48;20.40;99.90
23544;DHT22;11950;51.230;4.012;2022-08-19T07:46:15;20.40;99.90
23544;DHT22;11950;51.230;4.012;2022-08-19T07:48:44;20.60;99.90
23544;DHT22;11950;51.230;4.012;2022-08-19T07:51:17;20.50;99.90
23544;DHT22;11950;51.230;4.012;2022-08-19T07:53:44;20.50;99.90
23544;DHT22;11950;51.230;4.012;2022-08-19T07:56:12;20.60;99.90
23544;DHT22;11950;51.230;4.012;2022-08-19T07:58:41;20.60;99.90
23544;DHT22;11950;51.230;4.012;2022-08-19T08:01:12;20.70;99.90
23544;DHT22;11950;51.230;4.012;2022-08-19T08:03:39;20.60;99.90
23544;DHT22;11950;51.230;4.012;2022-08-19T08:06:24;20.80;99.90
23544;DHT22;11950;51.230;4.012;2022-08-19T08:09:18;20.70;99.90
23544;DHT22;11950;51.230;4.012;2022-08-19T08:12:04;20.70;99.90
23544;DHT22;11950;51.230;4.012;2022-08-19T08:14:34;20.80;99.90
23544;DHT22;11950;51.230;4.012;2022-08-19T08:17:02;20.70;99.90
23544;DHT22;11950;51.230;4.012;2022-08-19T08:19:28;20.80;99.90
23544;DHT22;11950;51.230;4.012;2022-08-19T08:21:56;20.90;99.90
23544;DHT22;11950;51.230;4.012;2022-08-19T08:24:24;20.90;99.90
23544;DHT22;11950;51.230;4.012;2022-08-19T08:26:51;20.90;99.90
23544;DHT22;11950;51.230;4.012;2022-08-19T08:29:17;21.00;99.90
23544;DHT22;11950;51.230;4.012;2022-08-19T08:31:46;21.00;99.90
23544;DHT22;11950;51.230;4.012;2022-08-19T08:34:13;21.10;99.90
23544;DHT22;11950;51.230;4.012;2022-08-19T08:36:43;21.00;99.90
23544;DHT22;11950;51.230;4.012;2022-08-19T08:39:17;21.00;99.90
23544;DHT22;11950;51.230;4.012;2022-08-19T08:47:05;21.10;99.90
23544;DHT22;11950;51.230;4.012;2022-08-19T08:49:48;21.10;99.90
23544;DHT22;11950;51.230;4.012;2022-08-19T08:52:22;21.10;99.90
23544;DHT22;11950;51.230;4.012;2022-08-19T08:54:53;21.10;99.90
23544;DHT22;11950;51.230;4.012;2022-08-19T09:00:19;21.20;99.90
23544;DHT22;11950;51.230;4.012;2022-08-19T09:02:47;21.30;99.90
23544;DHT22;11950;51.230;4.012;2022-08-19T09:05:13;21.10;99.90
23544;DHT22;11950;51.230;4.012;2022-08-19T09:08:13;21.20;99.90
23544;DHT22;11950;51.230;4.012;2022-08-19T09:10:54;21.30;99.90
23544;DHT22;11950;51.230;4.012;2022-08-19T09:15:56;21.30;99.90
23544;DHT22;11950;51.230;4.012;2022-08-19T09:18:24;21.40;99.90
23544;DHT22;11950;51.230;4.012;2022-08-19T09:20:51;21.40;99.90
23544;DHT22;11950;51.230;4.012;2022-08-19T09:23:17;21.40;99.90
23544;DHT22;11950;51.230;4.012;2022-08-19T09:25:43;21.50;99.90
23544;DHT22;11950;51.230;4.012;2022-08-19T09:28:10;21.50;99.90
23544;DHT22;11950;51.230;4.012;2022-08-19T09:30:40;21.50;99.90
23544;DHT22;11950;51.230;4.012;2022-08-19T09:33:07;21.50;99.90
23544;DHT22;11950;51.230;4.012;2022-08-19T09:35:34;21.50;99.90
23544;DHT22;11950;51.230;4.012;2022-08-19T09:38:01;21.60;99.90
23544;DHT22;11950;51.230;4.012;2022-08-19T09:40:28;21.60;99.90
23544;DHT22;11950;51.230;4.012;2022-08-19T09:42:55;21.60;99.90
23544;DHT22;11950;51.230;4.012;2022-08-19T09:45:23;21.60;99.90
23544;DHT22;11950;51.230;4.012;2022-08-19T09:47:51;21.60;99.90
23544;DHT22;11950;51.230;4.012;2022-08-19T09:50:18;21.60;99.90
23544;DHT22;11950;51.230;4.012;2022-08-19T09:52:45;21.60;99.90
23544;DHT22;11950;51.230;4.012;2022-08-19T09:55:12;21.60;99.90
23544;DHT22;11950;51.230;4.012;2022-08-19T09:57:38;21.70;99.90
23544;DHT22;11950;51.230;4.012;2022-08-19T10:00:07;21.70;99.90
23544;DHT22;11950;51.230;4.012;2022-08-19T10:02:34;21.70;99.90
23544;DHT22;11950;51.230;4.012;2022-08-19T10:05:02;21.80;99.90
23544;DHT22;11950;51.230;4.012;2022-08-19T10:07:48;21.80;99.90
23544;DHT22;11950;51.230;4.012;2022-08-19T10:10:14;21.90;99.90
23544;DHT22;11950;51.230;4.012;2022-08-19T10:12:41;21.90;99.90
23544;DHT22;11950;51.230;4.012;2022-08-19T10:15:08;21.90;99.90
23544;DHT22;11950;51.230;4.012;2022-08-19T10:17:35;22.00;99.90
23544;DHT22;11950;51.230;4.012;2022-08-19T10:20:01;22.20;99.90
23544;DHT22;11950;51.230;4.012;2022-08-19T10:22:30;22.10;99.90
23544;DHT22;11950;51.230;4.012;2022-08-19T10:24:56;22.10;99.90
23544;DHT22;11950;51.230;4.012;2022-08-19T10:27:22;22.20;99.90
23544;DHT22;11950;51.230;4.012;2022-08-19T10:29:50;22.10;99.90
23544;DHT22;11950;51.230;4.012;2022-08-19T10:32:16;22.10;99.90
23544;DHT22;11950;51.230;4.012;2022-08-19T10:34:42;22.20;99.90
23544;DHT22;11950;51.230;4.012;2022-08-19T10:37:09;22.20;99.90
23544;DHT22;11950;51.230;4.012;2022-08-19T10:39:36;22.20;99.90
23544;DHT22;11950;51.230;4.012;2022-08-19T10:42:08;22.10;99.90
23544;DHT22;11950;51.230;4.012;2022-08-19T10:44:36;22.30;99.90
23544;DHT22;11950;51.230;4.012;2022-08-19T10:47:03;22.30;99.90
23544;DHT22;11950;51.230;4.012;2022-08-19T10:49:30;22.30;99.90
23544;DHT22;11950;51.230;4.012;2022-08-19T10:51:58;22.40;99.90
23544;DHT22;11950;51.230;4.012;2022-08-19T10:54:42;22.40;99.90
23544;DHT22;11950;51.230;4.012;2022-08-19T10:57:30;22.50;99.90
23544;DHT22;11950;51.230;4.012;2022-08-19T10:59:57;22.40;99.90
23544;DHT22;11950;51.230;4.012;2022-08-19T11:02:23;22.30;99.90
23544;DHT22;11950;51.230;4.012;2022-08-19T11:04:49;22.40;99.90
23544;DHT22;11950;51.230;4.012;2022-08-19T11:07:17;22.50;99.90
23544;DHT22;11950;51.230;4.012;2022-08-19T11:09:43;22.50;99.90
23544;DHT22;11950;51.230;4.012;2022-08-19T11:12:10;22.60;99.90
23544;DHT22;11950;51.230;4.012;2022-08-19T11:14:38;22.70;99.90
23544;DHT22;11950;51.230;4.012;2022-08-19T11:17:05;22.80;99.90
23544;DHT22;11950;51.230;4.012;2022-08-19T11:19:32;22.90;99.90
23544;DHT22;11950;51.230;4.012;2022-08-19T11:22:00;23.00;99.90
23544;DHT22;11950;51.230;4.012;2022-08-19T11:24:30;23.20;99.90
23544;DHT22;11950;51.230;4.012;2022-08-19T11:27:06;23.20;99.90
23544;DHT22;11950;51.230;4.012;2022-08-19T11:29:33;23.30;99.90
23544;DHT22;11950;51.230;4.012;2022-08-19T11:32:04;23.30;99.90
23544;DHT22;11950;51.230;4.012;2022-08-19T11:34:30;23.50;99.90
23544;DHT22;11950;51.230;4.012;2022-08-19T11:36:57;23.40;99.90
23544;DHT22;11950;51.230;4.012;2022-08-19T11:39:26;23.50;99.90
23544;DHT22;11950;51.230;4.012;2022-08-19T11:41:53;23.80;99.90
23544;DHT22;11950;51.230;4.012;2022-08-19T11:44:19;23.50;99.90
23544;DHT22;11950;51.230;4.012;2022-08-19T11:46:46;23.50;99.90
23544;DHT22;11950;51.230;4.012;2022-08-19T11:49:14;23.50;99.90
23544;DHT22;11950;51.230;4.012;2022-08-19T11:51:42;23.50;99.90
23544;DHT22;11950;51.230;4.012;2022-08-19T11:54:09;23.50;99.90
23544;DHT22;11950;51.230;4.012;2022-08-19T11:56:37;23.60;99.90
23544;DHT22;11950;51.230;4.012;2022-08-19T11:59:04;22.30;99.90
23544;DHT22;11950;51.230;4.012;2022-08-19T12:01:31;23.50;99.90
23544;DHT22;11950;51.230;4.012;2022-08-19T12:03:57;23.50;99.90
23544;DHT22;11950;51.230;4.012;2022-08-19T12:06:27;23.70;99.90
23544;DHT22;11950;51.230;4.012;2022-08-19T12:09:03;23.70;99.90
23544;DHT22;11950;51.230;4.012;2022-08-19T12:11:31;23.80;99.90
23544;DHT22;11950;51.230;4.012;2022-08-19T12:13:57;23.80;99.90
23544;DHT22;11950;51.230;4.012;2022-08-19T12:16:27;24.00;99.90
23544;DHT22;11950;51.230;4.012;2022-08-19T12:18:55;24.00;99.90
23544;DHT22;11950;51.230;4.012;2022-08-19T12:21:26;24.00;99.90
23544;DHT22;11950;51.230;4.012;2022-08-19T12:23:56;24.10;99.90
23544;DHT22;11950;51.230;4.012;2022-08-19T12:26:24;24.30;99.90
23544;DHT22;11950;51.230;4.012;2022-08-19T12:28:50;24.30;99.90
23544;DHT22;11950;51.230;4.012;2022-08-19T12:31:17;24.20;99.90
23544;DHT22;11950;51.230;4.012;2022-08-19T12:33:43;24.20;99.90
23544;DHT22;11950;51.230;4.012;2022-08-19T12:36:12;24.10;99.90
23544;DHT22;11950;51.230;4.012;2022-08-19T12:38:39;24.20;99.90
23544;DHT22;11950;51.230;4.012;2022-08-19T12:41:07;24.20;99.90
23544;DHT22;11950;51.230;4.012;2022-08-19T12:43:35;24.20;99.90
23544;DHT22;11950;51.230;4.012;2022-08-19T12:46:03;24.70;99.90
23544;DHT22;11950;51.230;4.012;2022-08-19T12:48:34;24.30;99.90
23544;DHT22;11950;51.230;4.012;2022-08-19T12:51:06;24.30;99.90
23544;DHT22;11950;51.230;4.012;2022-08-19T12:53:33;24.40;99.90
23544;DHT22;11950;51.230;4.012;2022-08-19T12:56:00;24.70;99.90
23544;DHT22;11950;51.230;4.012;2022-08-19T12:58:26;24.40;99.90
23544;DHT22;11950;51.230;4.012;2022-08-19T13:00:53;24.60;99.90
23544;DHT22;11950;51.230;4.012;2022-08-19T13:03:19;24.90;99.90
23544;DHT22;11950;51.230;4.012;2022-08-19T13:05:46;24.60;99.90
23544;DHT22;11950;51.230;4.012;2022-08-19T13:08:12;24.80;99.90
23544;DHT22;11950;51.230;4.012;2022-08-19T13:10:38;24.80;99.90
23544;DHT22;11950;51.230;4.012;2022-08-19T13:13:07;25.20;99.90
23544;DHT22;11950;51.230;4.012;2022-08-19T13:15:35;25.00;99.90
23544;DHT22;11950;51.230;4.012;2022-08-19T13:18:02;25.20;99.90
23544;DHT22;11950;51.230;4.012;2022-08-19T13:20:29;25.30;99.90
23544;DHT22;11950;51.230;4.012;2022-08-19T13:22:55;25.30;99.90
23544;DHT22;11950;51.230;4.012;2022-08-19T13:25:23;25.40;99.90
23544;DHT22;11950;51.230;4.012;2022-08-19T13:27:50;25.30;99.90
23544;DHT22;11950;51.230;4.012;2022-08-19T13:30:18;25.40;99.90
23544;DHT22;11950;51.230;4.012;2022-08-19T13:33:04;25.40;99.90
23544;DHT22;11950;51.230;4.012;2022-08-19T13:35:45;25.40;99.90
23544;DHT22;11950;51.230;4.012;2022-08-19T13:38:12;25.40;99.90
23544;DHT22;11950;51.230;4.012;2022-08-19T13:40:40;25.30;99.90
23544;DHT22;11950;51.230;4.012;2022-08-19T13:43:07;25.10;99.90
23544;DHT22;11950;51.230;4.012;2022-08-19T13:45:35;25.20;99.90
23544;DHT22;11950;51.230;4.012;2022-08-19T13:48:04;25.10;99.90
23544;DHT22;11950;51.230;4.012;2022-08-19T13:50:42;25.10;99.90
23544;DHT22;11950;51.230;4.012;2022-08-19T13:53:09;24.90;99.90
23544;DHT22;11950;51.230;4.012;2022-08-19T13:55:40;24.80;99.90
23544;DHT22;11950;51.230;4.012;2022-08-19T13:58:07;24.60;99.90
23544;DHT22;11950;51.230;4.012;2022-08-19T14:00:36;24.50;99.90
23544;DHT22;11950;51.230;4.012;2022-08-19T14:03:03;24.00;99.90
23544;DHT22;11950;51.230;4.012;2022-08-19T14:05:31;23.90;99.90
23544;DHT22;11950;51.230;4.012;2022-08-19T14:07:58;23.80;99.90
23544;DHT22;11950;51.230;4.012;2022-08-19T14:10:27;23.60;99.90
23544;DHT22;11950;51.230;4.012;2022-08-19T14:12:55;23.50;99.90
23544;DHT22;11950;51.230;4.012;2022-08-19T14:15:22;23.40;99.90
23544;DHT22;11950;51.230;4.012;2022-08-19T14:17:49;23.30;99.90
23544;DHT22;11950;51.230;4.012;2022-08-19T14:20:16;23.20;99.90
23544;DHT22;11950;51.230;4.012;2022-08-19T14:22:43;23.10;99.90
23544;DHT22;11950;51.230;4.012;2022-08-19T14:25:13;23.00;99.90
23544;DHT22;11950;51.230;4.012;2022-08-19T14:27:40;23.00;99.90
23544;DHT22;11950;51.230;4.012;2022-08-19T14:30:09;23.20;99.90
23544;DHT22;11950;51.230;4.012;2022-08-19T14:32:36;23.10;99.90
23544;DHT22;11950;51.230;4.012;2022-08-19T14:35:03;23.30;99.90
23544;DHT22;11950;51.230;4.012;2022-08-19T14:37:30;23.20;99.90
23544;DHT22;11950;51.230;4.012;2022-08-19T14:39:57;23.30;99.90
23544;DHT22;11950;51.230;4.012;2022-08-19T14:42:23;23.40;99.90
23544;DHT22;11950;51.230;4.012;2022-08-19T14:44:49;23.50;99.90
23544;DHT22;11950;51.230;4.012;2022-08-19T14:47:15;23.30;99.90
23544;DHT22;11950;51.230;4.012;2022-08-19T14:49:42;23.30;99.90
23544;DHT22;11950;51.230;4.012;2022-08-19T14:52:08;23.50;99.90
23544;DHT22;11950;51.230;4.012;2022-08-19T14:54:35;23.40;99.90
23544;DHT22;11950;51.230;4.012;2022-08-19T14:57:01;23.60;99.90
23544;DHT22;11950;51.230;4.012;2022-08-19T14:59:27;23.30;99.90
23544;DHT22;11950;51.230;4.012;2022-08-19T15:01:53;23.40;99.90
23544;DHT22;11950;51.230;4.012;2022-08-19T15:04:20;23.60;99.90
23544;DHT22;11950;51.230;4.012;2022-08-19T15:06:46;23.60;99.90
23544;DHT22;11950;51.230;4.012;2022-08-19T15:09:12;23.70;99.90
23544;DHT22;11950;51.230;4.012;2022-08-19T15:11:38;23.70;99.90
23544;DHT22;11950;51.230;4.012;2022-08-19T15:14:05;23.70;99.90
23544;DHT22;11950;51.230;4.012;2022-08-19T15:16:32;23.70;99.90
23544;DHT22;11950;51.230;4.012;2022-08-19T15:18:59;23.80;99.90
23544;DHT22;11950;51.230;4.012;2022-08-19T15:21:27;23.80;99.90
23544;DHT22;11950;51.230;4.012;2022-08-19T15:23:55;23.70;99.90
23544;DHT22;11950;51.230;4.012;2022-08-19T15:26:21;23.80;99.90
23544;DHT22;11950;51.230;4.012;2022-08-19T15:28:48;23.80;99.90
23544;DHT22;11950;51.230;4.012;2022-08-19T15:31:17;23.80;99.90
23544;DHT22;11950;51.230;4.012;2022-08-19T15:33:44;23.80;99.90
23544;DHT22;11950;51.230;4.012;2022-08-19T15:36:11;23.80;99.90
23544;DHT22;11950;51.230;4.012;2022-08-19T15:38:40;23.90;99.90
23544;DHT22;11950;51.230;4.012;2022-08-19T15:41:17;23.80;99.90
23544;DHT22;11950;51.230;4.012;2022-08-19T15:43:58;23.90;99.90
23544;DHT22;11950;51.230;4.012;2022-08-19T15:46:28;23.70;99.90
23544;DHT22;11950;51.230;4.012;2022-08-19T15:48:55;23.80;99.90
23544;DHT22;11950;51.230;4.012;2022-08-19T15:51:23;23.90;99.90
23544;DHT22;11950;51.230;4.012;2022-08-19T15:53:50;23.90;99.90
23544;DHT22;11950;51.230;4.012;2022-08-19T15:56:16;23.90;99.90